createdAt,value
2022-08-03T00:00:56.652Z,81.85
2022-08-03T00:06:03.736Z,82.10
2022-08-03T00:11:08.380Z,82.31
2022-08-03T00:16:11.513Z,82.27
2022-08-03T00:21:14.628Z,81.72
2022-08-03T00:26:18.951Z,81.54
2022-08-03T00:31:29.692Z,81.68
2022-08-03T00:36:45.042Z,81.68
2022-08-03T00:41:48.998Z,81.58
2022-08-03T00:46:52.084Z,81.46
2022-08-03T00:51:55.665Z,81.36
2022-08-03T00:57:00.014Z,81.15
2022-08-03T01:02:03.722Z,81.13
2022-08-03T01:07:44.201Z,81.46
2022-08-03T01:13:59.882Z,81.56
2022-08-03T01:19:10.947Z,81.85
2022-08-03T01:24:48.230Z,81.58
2022-08-03T01:30:05.531Z,81.43
2022-08-03T01:35:17.978Z,81.60
2022-08-03T01:40:27.095Z,81.88
2022-08-03T01:45:34.035Z,82.11
2022-08-03T01:50:38.510Z,81.97
2022-08-03T01:55:46.712Z,81.93
2022-08-03T02:00:52.414Z,81.89
2022-08-03T02:06:58.408Z,81.96
2022-08-03T02:11:22.126Z,82.33
2022-08-03T02:16:27.812Z,82.32
2022-08-03T02:21:56.766Z,82.99
2022-08-03T02:27:02.169Z,83.08
2022-08-03T02:32:06.703Z,82.79
2022-08-03T02:37:12.771Z,82.94
2022-08-03T02:42:21.020Z,82.78
2022-08-03T02:47:29.126Z,82.59
2022-08-03T02:52:55.273Z,82.47
2022-08-03T02:58:01.411Z,82.38
2022-08-03T03:03:06.613Z,82.21
2022-08-03T03:08:18.068Z,82.00
2022-08-03T03:13:24.947Z,81.86
2022-08-03T03:18:31.833Z,81.77
2022-08-03T03:23:39.026Z,81.60
2022-08-03T03:28:42.923Z,81.51
2022-08-03T03:33:46.629Z,81.43
2022-08-03T03:38:49.845Z,81.29
2022-08-03T03:43:57.099Z,81.18
2022-08-03T03:49:00.561Z,81.10
2022-08-03T03:54:07.269Z,81.03
2022-08-03T03:59:10.535Z,80.90
2022-08-03T04:04:32.067Z,80.77
2022-08-03T04:10:07.852Z,80.61
2022-08-03T04:15:22.874Z,80.44
2022-08-03T04:20:32.158Z,80.37
2022-08-03T04:25:40.255Z,80.07
2022-08-03T04:30:49.126Z,79.85
2022-08-03T04:36:02.001Z,79.67
2022-08-03T04:41:08.659Z,79.54
2022-08-03T04:46:12.836Z,79.45
2022-08-03T04:51:16.989Z,79.34
2022-08-03T04:56:20.336Z,79.20
2022-08-03T05:01:23.633Z,79.25
2022-08-03T05:06:27.062Z,79.07
2022-08-03T05:11:30.348Z,78.99
2022-08-03T05:16:33.483Z,78.94
2022-08-03T05:21:41.673Z,78.69
2022-08-03T05:26:55.511Z,78.43
2022-08-03T05:31:58.697Z,77.89
2022-08-03T05:37:01.787Z,76.64
2022-08-03T05:42:05.045Z,75.67
2022-08-03T05:47:08.479Z,72.56
2022-08-03T05:52:12.647Z,72.28
2022-08-03T05:57:17.932Z,69.94
2022-08-03T06:02:21.045Z,67.26
2022-08-03T06:07:24.304Z,65.32
2022-08-03T06:12:27.509Z,63.74
2022-08-03T06:17:37.231Z,62.74
2022-08-03T06:22:50.505Z,62.95
2022-08-03T06:27:54.929Z,62.71
2022-08-03T06:32:58.010Z,62.17
2022-08-03T06:38:01.130Z,61.53
2022-08-03T06:43:04.229Z,61.54
2022-08-03T06:48:11.478Z,62.33
2022-08-03T06:53:21.379Z,61.54
2022-08-03T06:58:24.801Z,59.49
2022-08-03T07:03:28.038Z,57.33
2022-08-03T07:08:33.338Z,56.87
2022-08-03T07:13:37.576Z,54.22
2022-08-03T07:18:41.250Z,54.24
2022-08-03T07:23:44.376Z,53.15
2022-08-03T07:28:47.449Z,50.74
2022-08-03T07:33:50.960Z,48.95
2022-08-03T07:38:54.621Z,47.00
2022-08-03T07:43:57.998Z,46.85
2022-08-03T07:49:01.989Z,45.49
2022-08-03T07:54:05.719Z,42.83
2022-08-03T07:59:09.082Z,42.60
2022-08-03T08:04:12.510Z,42.47
2022-08-03T08:09:16.017Z,41.28
2022-08-03T08:14:19.228Z,41.18
2022-08-03T08:19:22.711Z,40.37
2022-08-03T08:24:31.118Z,40.26
2022-08-03T08:29:35.386Z,41.78
2022-08-03T08:34:51.231Z,41.35
2022-08-03T08:40:00.235Z,41.69
2022-08-03T08:45:08.558Z,41.97
2022-08-03T08:50:27.085Z,42.65
2022-08-03T08:55:58.699Z,42.87
2022-08-03T09:00:57.705Z,42.24
2022-08-03T09:06:02.983Z,42.24
2022-08-03T09:11:08.262Z,41.90
2022-08-03T09:16:23.916Z,40.31
2022-08-03T09:21:33.691Z,40.51
2022-08-03T09:26:38.656Z,40.58
2022-08-03T09:31:46.726Z,39.93
2022-08-03T09:36:52.627Z,39.63
2022-08-03T09:42:15.315Z,38.14
2022-08-03T09:47:34.676Z,38.22
2022-08-03T09:52:50.236Z,37.51
2022-08-03T09:58:10.789Z,36.63
2022-08-03T10:03:14.156Z,36.15
2022-08-03T10:08:20.251Z,35.87
2022-08-03T10:13:23.986Z,36.14
2022-08-03T10:18:27.386Z,36.52
2022-08-03T10:23:35.994Z,36.88
2022-08-03T10:28:46.221Z,36.63
2022-08-03T10:33:53.461Z,36.15
2022-08-03T10:38:57.726Z,36.78
2022-08-03T10:44:10.777Z,36.65
2022-08-03T10:49:34.016Z,35.69
2022-08-03T10:55:09.190Z,35.60
2022-08-03T11:00:24.140Z,35.10
2022-08-03T11:05:30.445Z,35.57
2022-08-03T11:10:33.713Z,35.69
2022-08-03T11:15:37.929Z,36.48
2022-08-03T11:20:57.160Z,35.85
2022-08-03T11:26:22.888Z,35.88
2022-08-03T11:31:48.899Z,36.19
2022-08-03T11:37:24.621Z,36.19
2022-08-03T11:42:29.352Z,35.33
2022-08-03T11:47:50.714Z,34.65
2022-08-03T11:52:55.068Z,34.35
2022-08-03T11:58:58.163Z,34.49
2022-08-03T12:03:24.323Z,34.16
2022-08-03T12:08:29.236Z,33.33
2022-08-03T12:14:45.644Z,33.89
2022-08-03T12:19:10.888Z,34.26
2022-08-03T12:24:14.082Z,33.99
2022-08-03T12:29:26.065Z,33.76
2022-08-03T12:34:51.245Z,33.05
2022-08-03T12:40:09.516Z,32.90
2022-08-03T12:45:27.617Z,33.07
2022-08-03T12:50:37.551Z,32.72
2022-08-03T12:56:04.443Z,32.10
2022-08-03T13:01:10.286Z,32.52
2022-08-03T13:06:23.913Z,31.93
2022-08-03T13:11:57.225Z,31.64
2022-08-03T13:16:55.119Z,31.42
2022-08-03T13:22:04.129Z,30.68
2022-08-03T13:28:01.000Z,30.08
2022-08-03T13:32:37.738Z,30.64
2022-08-03T13:37:40.848Z,29.98
2022-08-03T13:42:44.104Z,30.21
2022-08-03T13:47:47.270Z,31.34
2022-08-03T13:52:51.496Z,31.37
2022-08-03T13:58:04.846Z,31.00
2022-08-03T14:03:14.287Z,30.48
2022-08-03T14:08:20.366Z,31.24
2022-08-03T14:13:25.649Z,31.71
2022-08-03T14:18:33.606Z,32.38
2022-08-03T14:23:38.466Z,32.50
2022-08-03T14:28:41.785Z,32.26
2022-08-03T14:33:45.018Z,31.94
2022-08-03T14:38:48.265Z,31.85
2022-08-03T14:44:02.212Z,31.61
2022-08-03T14:50:37.373Z,31.72
2022-08-03T14:54:31.142Z,31.96
2022-08-03T14:59:55.855Z,32.38
2022-08-03T15:04:57.451Z,32.88
2022-08-03T15:10:40.334Z,33.13
2022-08-03T15:15:51.925Z,33.35
2022-08-03T15:20:55.516Z,33.46
2022-08-03T15:26:03.894Z,33.67
2022-08-03T15:31:24.769Z,33.83
2022-08-03T15:36:27.961Z,33.99
2022-08-03T15:41:31.443Z,33.62
2022-08-03T15:46:34.839Z,33.40
2022-08-03T15:51:38.526Z,33.47
2022-08-03T15:56:45.422Z,32.95
2022-08-03T16:01:49.414Z,33.27
2022-08-03T16:06:52.874Z,33.25
2022-08-03T16:11:56.123Z,33.41
2022-08-03T16:16:59.275Z,33.56
2022-08-03T16:22:02.348Z,34.46
2022-08-03T16:27:06.642Z,36.24
2022-08-03T16:32:20.685Z,36.17
2022-08-03T16:37:38.039Z,35.94
2022-08-03T16:42:42.270Z,35.17
2022-08-03T16:47:45.318Z,35.24
2022-08-03T16:52:48.727Z,35.18
2022-08-03T16:57:59.364Z,34.79
2022-08-03T17:03:12.816Z,34.92
2022-08-03T17:08:26.537Z,34.29
2022-08-03T17:13:39.853Z,33.94
2022-08-03T17:18:57.687Z,33.44
2022-08-03T17:24:19.671Z,33.42
2022-08-03T17:29:26.160Z,33.83
2022-08-03T17:34:33.380Z,33.60
2022-08-03T17:45:03.511Z,34.71
2022-08-03T17:50:09.745Z,34.81
2022-08-03T17:55:56.535Z,35.60
2022-08-03T18:02:00.164Z,36.12
2022-08-03T18:06:55.981Z,36.44
2022-08-03T18:12:07.143Z,37.29
2022-08-03T18:17:19.882Z,38.01
2022-08-03T18:22:27.114Z,39.53
2022-08-03T18:27:42.387Z,43.16
2022-08-03T18:33:01.022Z,43.90
2022-08-03T18:38:16.787Z,44.30
2022-08-03T18:43:21.702Z,45.57
2022-08-03T18:49:33.465Z,47.23
2022-08-03T18:55:01.027Z,47.65
2022-08-03T19:00:23.926Z,51.22
2022-08-03T19:05:57.718Z,52.27
2022-08-03T19:11:03.621Z,55.60
2022-08-03T19:16:18.966Z,54.22
2022-08-03T19:21:22.951Z,54.53
2022-08-03T19:26:30.144Z,55.04
2022-08-03T19:31:38.876Z,55.05
2022-08-03T19:36:43.912Z,55.62
2022-08-03T19:41:52.003Z,56.73
2022-08-03T19:47:42.520Z,56.52
2022-08-03T19:52:48.355Z,56.79
2022-08-03T19:57:57.208Z,58.03
2022-08-03T20:03:01.258Z,58.03
2022-08-03T20:08:06.939Z,58.63
2022-08-03T20:13:19.264Z,59.24
2022-08-03T20:18:22.915Z,61.17
2022-08-03T20:23:37.225Z,61.76
2022-08-03T20:28:52.297Z,61.72
2022-08-03T20:33:55.433Z,62.98
2022-08-03T20:38:59.164Z,62.96
2022-08-03T20:44:04.715Z,62.72
2022-08-03T20:49:08.326Z,62.93
2022-08-03T20:54:29.946Z,63.67
2022-08-03T20:59:50.407Z,63.47
2022-08-03T21:04:54.873Z,63.49
2022-08-03T21:10:04.185Z,64.72
2022-08-03T21:16:02.560Z,65.61
2022-08-03T21:20:44.671Z,65.57
2022-08-03T21:25:50.891Z,65.47
2022-08-03T21:30:55.705Z,65.82
2022-08-03T21:35:59.136Z,67.32
2022-08-03T21:41:04.042Z,68.28
2022-08-03T21:46:08.503Z,68.64
2022-08-03T21:51:16.147Z,69.35
2022-08-03T21:56:22.468Z,70.47
2022-08-03T22:01:28.451Z,72.07
2022-08-03T22:06:42.509Z,72.16
2022-08-03T22:11:48.080Z,71.19
2022-08-03T22:16:51.453Z,71.07
2022-08-03T22:21:54.817Z,70.43
2022-08-03T22:27:18.585Z,70.68
2022-08-03T22:32:21.657Z,70.82
2022-08-03T22:37:29.047Z,71.43
2022-08-03T22:42:35.467Z,71.33
2022-08-03T22:47:41.317Z,71.63
2022-08-03T22:52:45.683Z,72.39
2022-08-03T22:57:50.980Z,72.76
2022-08-03T23:03:03.385Z,73.06
2022-08-03T23:08:09.948Z,73.40
2022-08-03T23:13:16.193Z,72.81
2022-08-03T23:18:22.506Z,72.59
2022-08-03T23:23:26.687Z,72.51
2022-08-03T23:28:35.304Z,72.01
2022-08-03T23:33:40.965Z,71.71
2022-08-03T23:38:45.161Z,71.78
2022-08-03T23:43:51.873Z,71.62
2022-08-03T23:49:00.456Z,71.86
2022-08-03T23:54:28.297Z,71.94
